Time;durP1;ratioP1;P1;durP2;ratioP2;P2;SDS_P1;SDS_P2;PMS_P1;PMS_P2;Temp;Humidity;BMP_temperature;BMP_pressure;BME280_temperature;BME280_humidity;BME280_pressure;Samples;Min_cycle;Max_cycle;Signal;HPM_P1;HPM_P2
2022/01/16 00:05:32;;;;;;;80.80;30.53;;;1.90;99.90;;;;;;5040735;28;20220;-70
2022/01/16 00:08:25;;;;;;;73.40;28.60;;;1.80;99.90;;;;;;5053118;28;20216;-69
2022/01/16 00:11:14;;;;;;;80.03;28.97;;;1.80;99.90;;;;;;5044997;28;20236;-69
2022/01/16 00:14:04;;;;;;;77.80;29.10;;;1.80;99.90;;;;;;5057410;28;20223;-71
2022/01/16 00:16:53;;;;;;;84.17;32.07;;;1.80;99.90;;;;;;5055420;28;20233;-68
2022/01/16 00:19:41;;;;;;;82.33;31.13;;;1.80;99.90;;;;;;5055647;28;20223;-70
2022/01/16 00:22:36;;;;;;;85.67;32.07;;;1.90;99.90;;;;;;5041826;28;20236;-70
2022/01/16 00:25:25;;;;;;;79.70;29.17;;;2.00;99.90;;;;;;5038767;28;20212;-69
2022/01/16 00:28:14;;;;;;;83.90;29.63;;;2.00;99.90;;;;;;5052544;28;20227;-70
2022/01/16 00:31:04;;;;;;;79.30;29.30;;;2.10;99.90;;;;;;5057228;28;20562;-70
2022/01/16 00:33:53;;;;;;;75.03;27.83;;;2.00;99.90;;;;;;5056344;28;20233;-70
2022/01/16 00:36:41;;;;;;;82.40;31.50;;;1.90;99.90;;;;;;5053649;28;20224;-69
2022/01/16 00:39:30;;;;;;;78.93;28.80;;;1.90;99.90;;;;;;5024484;28;20221;-71
2022/01/16 00:42:19;;;;;;;71.77;30.10;;;2.00;99.90;;;;;;5042729;28;20219;-70
2022/01/16 00:45:09;;;;;;;69.60;29.50;;;1.90;99.90;;;;;;5057047;28;20697;-70
2022/01/16 00:47:59;;;;;;;61.27;27.10;;;2.00;99.90;;;;;;5054093;28;20244;-70
2022/01/16 00:50:47;;;;;;;65.27;26.90;;;1.90;99.90;;;;;;5040534;28;20697;-70
2022/01/16 00:53:36;;;;;;;67.47;26.63;;;2.00;99.90;;;;;;5041155;28;20302;-70
2022/01/16 00:56:25;;;;;;;68.90;27.93;;;1.80;99.90;;;;;;5058324;28;20226;-70
2022/01/16 00:59:13;;;;;;;63.10;26.10;;;1.80;99.90;;;;;;5040877;28;20314;-70
2022/01/16 01:02:02;;;;;;;68.87;27.07;;;1.80;99.90;;;;;;5039958;28;20231;-70
2022/01/16 01:04:52;;;;;;;63.23;26.83;;;1.80;99.90;;;;;;5056195;28;20232;-68
2022/01/16 01:07:41;;;;;;;62.00;25.67;;;1.70;99.90;;;;;;5050749;28;20217;-70
2022/01/16 01:10:50;;;;;;;57.07;25.63;;;1.70;99.90;;;;;;5043582;28;20219;-70
2022/01/16 01:13:57;;;;;;;58.63;24.87;;;1.70;99.90;;;;;;5038361;28;20220;-71
2022/01/16 01:17:00;;;;;;;66.70;25.70;;;1.80;99.90;;;;;;5054006;28;20220;-70
2022/01/16 01:19:52;;;;;;;57.97;26.00;;;1.70;99.90;;;;;;5051742;28;20262;-70
2022/01/16 01:22:41;;;;;;;58.23;25.63;;;1.70;99.90;;;;;;5042925;28;20238;-69
2022/01/16 01:25:34;;;;;;;64.40;26.80;;;1.70;99.90;;;;;;5036569;28;20217;-70
2022/01/16 01:28:22;;;;;;;62.83;26.40;;;1.50;99.90;;;;;;5053105;28;20243;-69
2022/01/16 01:31:12;;;;;;;66.80;29.70;;;1.40;99.90;;;;;;5040897;28;20232;-70
2022/01/16 01:34:03;;;;;;;67.83;27.77;;;1.40;99.90;;;;;;5042333;28;20224;-70
2022/01/16 01:36:55;;;;;;;62.87;27.17;;;1.50;99.90;;;;;;5039908;28;20220;-69
2022/01/16 01:39:44;;;;;;;69.23;28.73;;;1.60;99.90;;;;;;5055165;28;20236;-69
2022/01/16 01:42:35;;;;;;;68.70;27.10;;;1.60;99.90;;;;;;5039672;28;20732;-69
2022/01/16 01:51:57;;;;;;;70.40;29.13;;;1.50;99.90;;;;;;5052741;28;20239;-68
2022/01/16 01:54:46;;;;;;;70.13;27.90;;;1.50;99.90;;;;;;5051751;28;20276;-70
2022/01/16 01:57:35;;;;;;;57.60;26.30;;;1.50;99.90;;;;;;5037528;28;20267;-70
2022/01/16 02:00:24;;;;;;;62.53;26.57;;;1.50;99.90;;;;;;5040887;28;20224;-68
2022/01/16 02:03:19;;;;;;;61.97;25.87;;;1.50;99.90;;;;;;5040129;28;20589;-69
2022/01/16 02:06:08;;;;;;;61.40;26.23;;;1.40;99.90;;;;;;5042608;28;20225;-70
2022/01/16 02:09:00;;;;;;;68.40;29.17;;;1.40;99.90;;;;;;5053621;28;20238;-70
2022/01/16 02:11:49;;;;;;;58.23;24.47;;;1.40;99.90;;;;;;5051612;28;20712;-69
2022/01/16 02:14:53;;;;;;;65.97;26.27;;;1.40;99.90;;;;;;5054226;28;20234;-70
2022/01/16 02:30:47;;;;;;;60.27;25.60;;;1.50;99.90;;;;;;5041317;28;20314;-68
2022/01/16 02:36:34;;;;;;;51.50;23.27;;;1.40;99.90;;;;;;5029465;28;20692;-70
2022/01/16 02:39:27;;;;;;;60.13;25.00;;;1.50;99.90;;;;;;5051745;28;21156;-69
2022/01/16 02:42:17;;;;;;;58.60;24.37;;;1.50;99.90;;;;;;5054389;28;20231;-69
2022/01/16 02:45:15;;;;;;;54.70;24.03;;;1.50;99.90;;;;;;5049515;28;20735;-68
2022/01/16 02:48:05;;;;;;;66.40;24.80;;;1.60;99.90;;;;;;5051963;28;21044;-69
2022/01/16 02:50:54;;;;;;;58.83;25.37;;;1.40;99.90;;;;;;5049730;28;20224;-68
2022/01/16 02:53:43;;;;;;;57.33;25.13;;;1.20;99.90;;;;;;5045139;28;20225;-69
2022/01/16 02:56:35;;;;;;;60.83;24.27;;;1.10;99.90;;;;;;5035328;28;20220;-69
2022/01/16 02:59:23;;;;;;;54.70;24.67;;;1.20;99.90;;;;;;5029975;28;20225;-69
2022/01/16 03:02:12;;;;;;;65.37;25.43;;;1.10;99.90;;;;;;5015973;28;20221;-69
2022/01/16 03:05:04;;;;;;;59.67;24.23;;;1.10;99.90;;;;;;5030187;28;21018;-70
2022/01/16 03:07:53;;;;;;;56.03;24.70;;;1.20;99.90;;;;;;5031607;28;20699;-70
2022/01/16 03:11:02;;;;;;;66.57;26.77;;;1.00;99.90;;;;;;5012580;28;20217;-69
2022/01/16 03:13:53;;;;;;;58.00;25.63;;;1.20;99.90;;;;;;5035588;28;20227;-69
2022/01/16 03:16:43;;;;;;;67.37;26.60;;;1.20;99.90;;;;;;5036950;28;20587;-69
2022/01/16 03:22:37;;;;;;;67.13;26.00;;;1.20;99.90;;;;;;5022334;28;20217;-70
2022/01/16 03:25:26;;;;;;;64.77;27.57;;;1.20;99.90;;;;;;5016341;28;20233;-69
2022/01/16 03:28:14;;;;;;;54.87;26.57;;;1.10;99.90;;;;;;5021393;28;20702;-69
2022/01/16 03:31:08;;;;;;;66.07;30.00;;;1.00;99.90;;;;;;5026008;28;20225;-69
2022/01/16 03:33:57;;;;;;;62.70;27.93;;;1.00;99.90;;;;;;5013767;28;20218;-70
2022/01/16 03:36:46;;;;;;;76.13;30.33;;;1.10;99.90;;;;;;5013153;28;20965;-70
2022/01/16 03:39:35;;;;;;;66.10;30.00;;;1.20;99.90;;;;;;5035922;28;20220;-70
2022/01/16 03:42:28;;;;;;;70.83;30.33;;;1.20;99.90;;;;;;5017126;28;20507;-70
2022/01/16 03:45:17;;;;;;;64.93;28.30;;;1.20;99.90;;;;;;5017745;28;20238;-70
2022/01/16 03:48:07;;;;;;;64.67;27.50;;;1.20;99.90;;;;;;5019445;28;20401;-69
2022/01/16 03:50:56;;;;;;;61.33;27.43;;;1.30;99.90;;;;;;5035898;28;20221;-70
2022/01/16 03:53:44;;;;;;;62.33;28.30;;;1.30;99.90;;;;;;5031560;28;20224;-70
2022/01/16 03:56:34;;;;;;;69.77;28.73;;;1.30;99.90;;;;;;5035809;28;20236;-69
2022/01/16 03:59:23;;;;;;;66.93;29.20;;;1.30;99.90;;;;;;5041169;28;20586;-71
2022/01/16 04:02:12;;;;;;;63.90;27.80;;;1.20;99.90;;;;;;5054973;28;20220;-70
2022/01/16 04:05:02;;;;;;;63.20;29.00;;;1.20;99.90;;;;;;5057858;28;20216;-69
2022/01/16 04:07:50;;;;;;;60.43;27.60;;;1.20;99.90;;;;;;5053782;28;20232;-69
2022/01/16 04:10:39;;;;;;;65.20;28.03;;;1.10;99.90;;;;;;5043470;28;20217;-70
2022/01/16 04:13:30;;;;;;;70.67;28.53;;;1.20;99.90;;;;;;5040456;28;20233;-69
2022/01/16 04:16:20;;;;;;;61.30;29.03;;;1.20;99.90;;;;;;5040827;28;20228;-69
2022/01/16 04:19:09;;;;;;;69.40;30.10;;;1.20;99.90;;;;;;5053526;28;20224;-69
2022/01/16 04:22:03;;;;;;;71.47;29.30;;;1.30;99.90;;;;;;5044056;28;20708;-69
2022/01/16 04:24:52;;;;;;;67.90;29.23;;;1.30;99.90;;;;;;5042480;28;20216;-70
2022/01/16 04:27:41;;;;;;;74.57;30.30;;;1.30;99.90;;;;;;5049541;28;20215;-69
2022/01/16 04:30:30;;;;;;;71.77;30.80;;;1.20;99.90;;;;;;5041735;28;20220;-69
2022/01/16 04:33:19;;;;;;;70.37;30.37;;;1.30;99.90;;;;;;5055526;28;20225;-69
2022/01/16 04:36:08;;;;;;;74.73;30.43;;;1.20;99.90;;;;;;5042710;28;20235;-70
2022/01/16 04:38:58;;;;;;;73.43;31.33;;;1.20;99.90;;;;;;5044735;28;20695;-71
2022/01/16 04:44:54;;;;;;;86.30;33.17;;;1.30;99.90;;;;;;5058461;28;20224;-69
2022/01/16 04:47:43;;;;;;;70.93;30.77;;;1.30;99.90;;;;;;5039777;28;20209;-69
2022/01/16 04:50:33;;;;;;;77.00;32.00;;;1.20;99.90;;;;;;5057035;28;20216;-70
2022/01/16 04:53:21;;;;;;;79.00;31.77;;;1.20;99.90;;;;;;5055219;28;20228;-68
2022/01/16 04:56:12;;;;;;;71.47;29.97;;;1.00;99.90;;;;;;5036049;28;20232;-70
2022/01/16 04:59:01;;;;;;;82.77;32.70;;;1.10;99.90;;;;;;5053172;28;20262;-67
2022/01/16 05:01:49;;;;;;;75.27;31.40;;;1.00;99.90;;;;;;5052785;28;20212;-67
2022/01/16 05:04:38;;;;;;;75.80;32.07;;;1.00;99.90;;;;;;5050769;28;20220;-67
2022/01/16 05:07:27;;;;;;;84.80;32.33;;;1.00;99.90;;;;;;5054128;28;20233;-69
2022/01/16 05:10:16;;;;;;;78.20;31.47;;;1.10;99.90;;;;;;5051619;28;20224;-70
2022/01/16 05:19:17;;;;;;;79.47;31.77;;;1.10;99.90;;;;;;5035783;28;20267;-69
2022/01/16 05:22:05;;;;;;;85.03;33.43;;;1.00;99.90;;;;;;5052956;28;20228;-69
2022/01/16 05:24:54;;;;;;;72.67;31.87;;;1.10;99.90;;;;;;5053946;28;20234;-70
2022/01/16 05:27:43;;;;;;;76.00;32.73;;;1.00;99.90;;;;;;5037575;28;20242;-70
2022/01/16 05:30:33;;;;;;;86.60;32.73;;;1.20;99.90;;;;;;5042032;28;20940;-69
2022/01/16 05:33:21;;;;;;;81.93;33.53;;;1.20;99.90;;;;;;5053363;28;20561;-69
2022/01/16 05:36:10;;;;;;;78.87;31.40;;;1.30;99.90;;;;;;5036548;28;20228;-69
2022/01/16 05:38:59;;;;;;;77.10;33.43;;;1.30;99.90;;;;;;5053878;28;20235;-68
2022/01/16 05:41:48;;;;;;;72.50;32.27;;;1.30;99.90;;;;;;5049299;28;20315;-69
2022/01/16 05:44:36;;;;;;;77.33;31.83;;;1.10;99.90;;;;;;5041773;28;20235;-69
2022/01/16 05:47:26;;;;;;;77.00;31.23;;;1.20;99.90;;;;;;5054173;28;20349;-68
2022/01/16 05:50:15;;;;;;;76.60;33.13;;;1.10;99.90;;;;;;5051730;28;20712;-68
2022/01/16 05:53:05;;;;;;;84.50;33.23;;;1.10;99.90;;;;;;5049388;28;20362;-68
2022/01/16 05:55:54;;;;;;;77.03;32.43;;;1.20;99.90;;;;;;5054351;28;20247;-71
2022/01/16 05:58:42;;;;;;;77.23;29.83;;;1.20;99.90;;;;;;5055496;28;20222;-72
2022/01/16 06:01:31;;;;;;;75.17;31.17;;;1.10;99.90;;;;;;5035486;28;20231;-71
2022/01/16 06:04:21;;;;;;;77.87;31.43;;;1.00;99.90;;;;;;5052945;28;20215;-69
2022/01/16 06:07:10;;;;;;;74.70;32.20;;;1.00;99.90;;;;;;5037674;28;20233;-70
2022/01/16 06:09:58;;;;;;;74.20;31.80;;;1.10;99.90;;;;;;5040620;28;20718;-68
2022/01/16 06:12:47;;;;;;;72.83;32.97;;;1.10;99.90;;;;;;5053730;28;20237;-69
2022/01/16 06:15:37;;;;;;;76.83;31.43;;;1.10;99.90;;;;;;5053217;28;20227;-69
2022/01/16 06:18:27;;;;;;;77.53;32.57;;;1.00;99.90;;;;;;5051943;28;20228;-70
2022/01/16 06:21:17;;;;;;;71.27;29.47;;;1.10;99.90;;;;;;5053021;28;20225;-69
2022/01/16 06:24:06;;;;;;;74.03;31.23;;;1.00;99.90;;;;;;5050420;28;20235;-70
2022/01/16 06:26:55;;;;;;;77.80;32.77;;;0.90;99.90;;;;;;5051787;28;20251;-69
2022/01/16 06:29:43;;;;;;;76.97;33.13;;;1.00;99.90;;;;;;5035821;28;20216;-69
2022/01/16 06:32:32;;;;;;;74.40;31.97;;;1.00;99.90;;;;;;5057330;28;20249;-70
2022/01/16 06:35:20;;;;;;;76.03;33.97;;;1.00;99.90;;;;;;5052687;28;20677;-69
2022/01/16 06:38:14;;;;;;;79.33;34.43;;;0.90;99.90;;;;;;5038437;28;20224;-69
2022/01/16 06:41:03;;;;;;;75.87;32.53;;;0.80;99.90;;;;;;5037189;28;20219;-70
2022/01/16 06:43:51;;;;;;;78.17;33.83;;;0.70;99.90;;;;;;5051616;28;20230;-69
2022/01/16 06:46:40;;;;;;;76.60;33.00;;;0.70;99.90;;;;;;5045347;28;20216;-69
2022/01/16 06:49:28;;;;;;;80.83;34.17;;;0.80;99.90;;;;;;5057643;28;20283;-68
2022/01/16 06:52:17;;;;;;;76.83;34.77;;;0.80;99.90;;;;;;5054076;28;20660;-69
2022/01/16 06:55:08;;;;;;;75.97;33.37;;;0.80;99.90;;;;;;5044486;28;20326;-69
2022/01/16 06:57:57;;;;;;;84.00;34.80;;;0.80;99.90;;;;;;5036977;28;20232;-69
2022/01/16 07:00:46;;;;;;;83.80;34.17;;;0.80;99.90;;;;;;5014720;28;20221;-70
2022/01/16 07:03:35;;;;;;;69.43;31.60;;;0.90;99.90;;;;;;5036270;28;20217;-70
2022/01/16 07:06:25;;;;;;;70.70;30.23;;;0.80;99.90;;;;;;5034587;28;20217;-69
2022/01/16 07:09:14;;;;;;;60.87;27.73;;;0.70;99.90;;;;;;5022431;28;20223;-70
2022/01/16 07:12:05;;;;;;;64.47;28.47;;;0.70;99.90;;;;;;5033817;28;20345;-70
2022/01/16 07:14:53;;;;;;;57.80;25.93;;;0.50;99.90;;;;;;5038211;28;20219;-69
2022/01/16 07:17:42;;;;;;;54.07;25.03;;;0.60;99.90;;;;;;5032984;28;20219;-68
2022/01/16 07:20:32;;;;;;;57.40;23.77;;;0.50;99.90;;;;;;5017986;28;20229;-69
2022/01/16 07:23:25;;;;;;;55.50;23.97;;;0.60;99.90;;;;;;5035468;28;20238;-69
2022/01/16 07:26:16;;;;;;;57.67;23.30;;;0.70;99.90;;;;;;5034402;28;20224;-69
2022/01/16 07:29:07;;;;;;;54.07;21.90;;;0.70;99.90;;;;;;5021266;28;20225;-69
2022/01/16 07:31:55;;;;;;;47.90;22.33;;;0.70;99.90;;;;;;5033841;28;20969;-68
2022/01/16 07:34:44;;;;;;;51.10;21.97;;;0.60;99.90;;;;;;5027222;28;20230;-70
2022/01/16 07:37:33;;;;;;;52.73;23.43;;;0.70;99.90;;;;;;5032527;28;20240;-70
2022/01/16 07:40:26;;;;;;;50.73;23.50;;;0.80;99.90;;;;;;5034056;28;20601;-70
2022/01/16 07:43:14;;;;;;;48.90;23.17;;;0.80;99.90;;;;;;5022585;28;20227;-70
2022/01/16 07:46:04;;;;;;;53.03;24.50;;;0.80;99.90;;;;;;5035324;28;20231;-69
2022/01/16 07:48:53;;;;;;;51.67;22.23;;;0.90;99.90;;;;;;5033798;28;20298;-70
2022/01/16 07:51:42;;;;;;;48.50;21.90;;;0.90;99.90;;;;;;5036370;28;20223;-70
2022/01/16 07:54:30;;;;;;;59.33;22.97;;;0.90;99.90;;;;;;5033221;28;20245;-70
2022/01/16 07:57:19;;;;;;;53.43;23.17;;;1.00;99.90;;;;;;5032992;28;20237;-72
2022/01/16 08:00:09;;;;;;;56.50;24.03;;;1.00;99.90;;;;;;5032730;28;20734;-69
2022/01/16 08:03:01;;;;;;;55.77;23.80;;;1.00;99.90;;;;;;5034236;28;20234;-70
2022/01/16 08:05:50;;;;;;;50.17;22.40;;;1.00;99.90;;;;;;5023151;28;20242;-69
2022/01/16 08:08:38;;;;;;;55.03;21.80;;;1.00;99.90;;;;;;5013891;28;20959;-68
2022/01/16 08:11:27;;;;;;;54.53;21.60;;;1.10;99.90;;;;;;5025405;28;20303;-68
2022/01/16 08:14:16;;;;;;;57.40;23.10;;;1.10;99.90;;;;;;5024293;28;20229;-69
2022/01/16 08:17:05;;;;;;;50.07;20.87;;;1.10;99.90;;;;;;5036815;28;20221;-72
2022/01/16 08:19:55;;;;;;;55.10;21.30;;;1.10;99.90;;;;;;5031688;28;20235;-73
2022/01/16 08:22:45;;;;;;;51.60;21.07;;;1.10;99.90;;;;;;5027422;28;20263;-71
2022/01/16 08:25:33;;;;;;;51.03;21.37;;;1.20;99.90;;;;;;5038192;28;20216;-71
2022/01/16 08:28:22;;;;;;;47.37;19.67;;;1.30;99.90;;;;;;5026780;28;20235;-79
2022/01/16 08:31:11;;;;;;;45.30;20.10;;;1.20;99.90;;;;;;5034097;28;20233;-70
2022/01/16 08:34:00;;;;;;;43.50;19.87;;;1.30;99.90;;;;;;5021856;28;20693;-70
2022/01/16 08:36:50;;;;;;;50.93;19.00;;;1.30;99.90;;;;;;5018021;28;20220;-71
2022/01/16 08:39:38;;;;;;;41.43;18.43;;;1.40;99.90;;;;;;5021890;28;20220;-70
2022/01/16 08:42:27;;;;;;;46.07;19.00;;;1.30;99.90;;;;;;5036534;28;20697;-70
2022/01/16 08:45:16;;;;;;;44.13;19.33;;;1.30;99.90;;;;;;5037832;28;20240;-70
2022/01/16 08:48:06;;;;;;;43.83;18.53;;;1.50;99.90;;;;;;5031962;28;20213;-71
2022/01/16 08:50:55;;;;;;;47.40;19.00;;;1.50;99.90;;;;;;5034946;28;20221;-71
2022/01/16 08:53:46;;;;;;;45.70;19.37;;;1.50;99.90;;;;;;5033847;28;20590;-70
2022/01/16 08:56:35;;;;;;;41.80;18.40;;;1.50;99.90;;;;;;5022338;28;20224;-69
2022/01/16 08:59:23;;;;;;;39.23;19.20;;;1.60;99.90;;;;;;5032387;28;20233;-70
2022/01/16 09:02:12;;;;;;;46.67;18.30;;;1.60;99.90;;;;;;5035034;28;20250;-70
2022/01/16 09:05:01;;;;;;;50.13;18.57;;;1.60;99.90;;;;;;5034827;28;20222;-68
2022/01/16 09:07:49;;;;;;;48.47;19.33;;;1.70;99.90;;;;;;5035520;28;20292;-71
2022/01/16 09:10:41;;;;;;;42.87;19.67;;;1.70;99.90;;;;;;5035765;28;20221;-69
2022/01/16 09:13:30;;;;;;;48.63;19.90;;;1.60;99.90;;;;;;5023324;28;20216;-69
2022/01/16 09:16:19;;;;;;;48.93;20.57;;;1.70;99.90;;;;;;5037860;28;20323;-69
2022/01/16 09:19:08;;;;;;;51.80;20.93;;;1.70;99.90;;;;;;5016147;28;20229;-71
2022/01/16 09:21:57;;;;;;;42.67;20.20;;;1.70;99.90;;;;;;5036465;28;20225;-71
2022/01/16 09:24:45;;;;;;;44.43;19.83;;;1.70;99.90;;;;;;5025186;28;20621;-72
2022/01/16 09:27:35;;;;;;;46.20;20.57;;;1.70;99.90;;;;;;5033531;28;20225;-71
2022/01/16 09:30:25;;;;;;;50.23;21.23;;;1.80;99.90;;;;;;5019604;28;20221;-72
2022/01/16 09:33:15;;;;;;;46.10;20.90;;;1.80;99.90;;;;;;5023921;28;20237;-71
2022/01/16 09:36:09;;;;;;;51.50;21.63;;;1.80;99.90;;;;;;5022628;28;20434;-69
2022/01/16 09:38:57;;;;;;;43.40;20.67;;;1.90;99.90;;;;;;5026342;28;20281;-71
2022/01/16 09:41:47;;;;;;;53.57;21.33;;;1.90;99.90;;;;;;5025096;28;20217;-71
2022/01/16 09:44:39;;;;;;;44.50;20.47;;;2.00;99.90;;;;;;5037103;28;20566;-71
2022/01/16 09:47:28;;;;;;;47.27;20.93;;;2.00;99.90;;;;;;5020777;28;20225;-70
2022/01/16 09:50:24;;;;;;;52.73;22.17;;;2.00;99.90;;;;;;5023382;28;20218;-72
2022/01/16 09:53:13;;;;;;;51.37;21.03;;;2.00;99.90;;;;;;5038820;28;20221;-71
2022/01/16 09:56:02;;;;;;;47.77;21.03;;;2.00;99.90;;;;;;5030596;28;20224;-71
2022/01/16 09:58:50;;;;;;;51.07;21.87;;;2.10;99.90;;;;;;5037828;28;20220;-72
2022/01/16 10:01:41;;;;;;;52.73;21.90;;;2.10;99.90;;;;;;5054313;28;20648;-72
2022/01/16 10:04:31;;;;;;;53.60;22.03;;;2.10;99.90;;;;;;5054639;28;20220;-71
2022/01/16 10:07:21;;;;;;;53.70;22.43;;;2.10;99.90;;;;;;5055170;28;20231;-71
2022/01/16 10:10:12;;;;;;;51.20;22.33;;;2.10;99.90;;;;;;5053839;28;20234;-73
2022/01/16 10:13:07;;;;;;;56.17;22.57;;;2.10;99.90;;;;;;5053040;28;20224;-73
2022/01/16 10:15:57;;;;;;;52.77;22.20;;;2.20;99.90;;;;;;5057546;28;20245;-75
2022/01/16 10:18:47;;;;;;;55.57;22.80;;;2.20;99.90;;;;;;5055673;28;20219;-74
2022/01/16 10:21:39;;;;;;;50.33;22.00;;;2.20;99.90;;;;;;5039203;28;20228;-74
2022/01/16 10:24:29;;;;;;;52.80;21.83;;;2.20;99.90;;;;;;5054382;28;20220;-74
2022/01/16 10:27:21;;;;;;;52.40;22.73;;;2.30;99.90;;;;;;5050893;28;20212;-74
2022/01/16 10:30:14;;;;;;;51.53;24.17;;;2.30;99.90;;;;;;5056669;28;20223;-74
2022/01/16 10:33:11;;;;;;;51.50;22.70;;;2.30;99.90;;;;;;5052045;28;20307;-75
2022/01/16 10:36:02;;;;;;;50.73;21.47;;;2.50;99.90;;;;;;5058771;28;20224;-73
2022/01/16 10:39:05;;;;;;;59.63;23.47;;;2.50;99.90;;;;;;5053307;28;20695;-73
2022/01/16 10:42:14;;;;;;;49.50;23.00;;;2.40;99.90;;;;;;5058100;28;20604;-73
2022/01/16 10:45:07;;;;;;;51.57;22.60;;;2.50;99.90;;;;;;5056448;28;20227;-75
2022/01/16 10:47:57;;;;;;;54.70;23.27;;;2.40;99.90;;;;;;5057960;28;20239;-73
2022/01/16 10:50:47;;;;;;;51.17;23.73;;;2.40;99.90;;;;;;5060183;28;20212;-77
2022/01/16 10:53:40;;;;;;;54.80;23.20;;;2.40;99.90;;;;;;5053055;28;20235;-74
2022/01/16 10:56:30;;;;;;;55.63;24.17;;;2.40;99.90;;;;;;5054011;28;20224;-74
2022/01/16 10:59:22;;;;;;;65.10;24.00;;;2.40;99.90;;;;;;5044870;28;20579;-75
2022/01/16 11:02:11;;;;;;;59.47;23.93;;;2.40;99.90;;;;;;5041308;28;20246;-75
2022/01/16 11:05:09;;;;;;;62.63;24.40;;;2.40;99.90;;;;;;5050954;28;20273;-75
2022/01/16 11:08:00;;;;;;;56.13;23.70;;;2.40;99.90;;;;;;5037195;28;20220;-76
2022/01/16 11:10:56;;;;;;;54.30;22.83;;;2.40;99.90;;;;;;5046904;28;20220;-76
2022/01/16 11:13:44;;;;;;;51.73;23.20;;;2.50;99.90;;;;;;5038535;28;20221;-75
2022/01/16 11:16:33;;;;;;;49.93;22.33;;;2.50;99.90;;;;;;5051055;28;20232;-75
2022/01/16 11:19:24;;;;;;;57.27;23.33;;;2.40;99.90;;;;;;5053576;28;20731;-76
2022/01/16 11:22:21;;;;;;;49.93;22.90;;;2.50;99.90;;;;;;5055224;28;20232;-76
2022/01/16 11:25:23;;;;;;;49.70;22.43;;;2.50;99.90;;;;;;5051805;28;20216;-75
2022/01/16 11:28:15;;;;;;;57.93;22.63;;;2.50;99.90;;;;;;5046925;28;20219;-75
2022/01/16 11:31:06;;;;;;;50.20;22.17;;;2.60;99.90;;;;;;5047839;28;20221;-75
2022/01/16 11:33:55;;;;;;;48.63;20.83;;;2.60;99.90;;;;;;5054663;28;20236;-76
2022/01/16 11:36:44;;;;;;;48.23;21.67;;;2.60;99.90;;;;;;5039541;28;20227;-76
2022/01/16 11:39:37;;;;;;;47.20;21.77;;;2.60;99.90;;;;;;5052770;28;20228;-75
2022/01/16 11:42:35;;;;;;;57.20;23.73;;;2.70;99.90;;;;;;5058735;28;20212;-74
2022/01/16 11:45:26;;;;;;;59.43;22.77;;;2.70;99.90;;;;;;5040567;28;20231;-76
2022/01/16 11:48:18;;;;;;;55.00;22.70;;;2.60;99.90;;;;;;5058959;28;20236;-75
2022/01/16 11:51:28;;;;;;;56.10;23.73;;;2.60;99.90;;;;;;5054944;28;20357;-76
2022/01/16 11:54:22;;;;;;;55.23;23.30;;;2.70;99.90;;;;;;5044200;28;20262;-76
2022/01/16 11:57:25;;;;;;;53.50;24.03;;;2.70;99.90;;;;;;5055917;28;20227;-76
2022/01/16 12:00:16;;;;;;;59.83;24.20;;;2.80;99.90;;;;;;5041305;28;20721;-75
2022/01/16 12:03:35;;;;;;;53.47;23.30;;;2.70;99.90;;;;;;5054204;28;20925;-76
2022/01/16 12:06:31;;;;;;;51.60;21.93;;;2.80;99.90;;;;;;5053633;28;20746;-73
2022/01/16 12:09:57;;;;;;;52.87;22.43;;;2.80;99.90;;;;;;5056361;28;20223;-75
2022/01/16 12:12:46;;;;;;;50.77;22.90;;;2.80;99.90;;;;;;5057997;28;20751;-74
2022/01/16 12:15:34;;;;;;;50.77;22.53;;;2.80;99.90;;;;;;5059864;28;20236;-74
2022/01/16 12:18:38;;;;;;;58.33;23.37;;;2.70;99.90;;;;;;5040622;28;20247;-74
2022/01/16 12:21:32;;;;;;;56.80;22.97;;;2.80;99.90;;;;;;5056732;28;20247;-76
2022/01/16 12:24:35;;;;;;;55.77;23.47;;;2.80;99.90;;;;;;5058430;28;20721;-75
2022/01/16 12:27:47;;;;;;;56.43;24.57;;;2.90;99.90;;;;;;5043180;28;20224;-74
2022/01/16 12:30:38;;;;;;;64.67;24.37;;;2.80;99.90;;;;;;5060529;28;20350;-75
2022/01/16 12:33:31;;;;;;;54.17;24.17;;;2.80;99.90;;;;;;5057044;28;20220;-75
2022/01/16 12:36:31;;;;;;;55.83;24.93;;;2.80;99.90;;;;;;5053575;28;20228;-75
2022/01/16 12:39:20;;;;;;;53.70;23.90;;;2.80;99.90;;;;;;5043784;28;20255;-76
2022/01/16 12:42:09;;;;;;;55.23;25.27;;;2.80;99.90;;;;;;5055901;28;20229;-78
2022/01/16 12:44:59;;;;;;;55.80;24.93;;;2.70;99.90;;;;;;5055122;28;20227;-75
2022/01/16 12:47:48;;;;;;;52.10;23.37;;;2.70;99.90;;;;;;5045392;28;20716;-75
2022/01/16 12:50:38;;;;;;;53.20;23.50;;;2.70;99.90;;;;;;5043998;28;20219;-75
2022/01/16 12:53:38;;;;;;;53.03;23.73;;;2.60;99.90;;;;;;5058364;28;20246;-72
2022/01/16 12:56:30;;;;;;;50.57;23.27;;;2.70;99.90;;;;;;5044155;28;20266;-71
2022/01/16 12:59:20;;;;;;;50.60;24.03;;;2.60;99.90;;;;;;5057232;28;20588;-72
2022/01/16 13:02:10;;;;;;;51.87;23.77;;;2.60;99.90;;;;;;5043104;28;20587;-72
2022/01/16 13:04:59;;;;;;;52.20;22.97;;;2.60;99.90;;;;;;5044077;28;21246;-71
2022/01/16 13:08:05;;;;;;;53.37;24.60;;;2.60;99.90;;;;;;5033722;28;20231;-72
2022/01/16 13:11:15;;;;;;;47.77;23.20;;;2.70;99.90;;;;;;5055753;28;20228;-71
2022/01/16 13:14:06;;;;;;;51.77;24.87;;;2.60;99.90;;;;;;5056229;28;22405;-72
2022/01/16 13:16:57;;;;;;;48.53;23.20;;;2.60;99.90;;;;;;5055013;28;20224;-72
2022/01/16 13:19:51;;;;;;;47.83;23.07;;;2.60;99.90;;;;;;5044905;28;20227;-72
2022/01/16 13:22:40;;;;;;;43.47;21.50;;;2.80;99.90;;;;;;5054944;28;20224;-71
2022/01/16 13:25:29;;;;;;;43.83;19.30;;;2.70;99.90;;;;;;5042907;28;20247;-72
2022/01/16 13:28:29;;;;;;;41.83;19.67;;;2.60;99.90;;;;;;5053059;28;20808;-72
2022/01/16 13:31:18;;;;;;;47.57;21.03;;;2.60;99.90;;;;;;5055195;28;20216;-71
2022/01/16 13:34:12;;;;;;;41.20;21.23;;;2.70;99.90;;;;;;5042183;28;20224;-71
2022/01/16 13:37:01;;;;;;;46.73;21.53;;;2.70;99.90;;;;;;5056364;28;20242;-73
2022/01/16 13:39:53;;;;;;;44.17;22.23;;;2.70;99.90;;;;;;5040138;28;20269;-71
2022/01/16 13:43:02;;;;;;;43.60;21.60;;;2.70;99.90;;;;;;5041791;28;20224;-72
2022/01/16 13:45:52;;;;;;;47.23;22.83;;;2.70;99.90;;;;;;5055622;28;20216;-72
2022/01/16 13:48:41;;;;;;;41.53;21.43;;;2.70;99.90;;;;;;5060692;28;20216;-72
2022/01/16 13:51:31;;;;;;;47.73;22.87;;;2.70;99.90;;;;;;5044196;28;20243;-69
2022/01/16 13:54:20;;;;;;;46.20;22.77;;;2.80;99.90;;;;;;5055869;28;20581;-71
2022/01/16 13:57:09;;;;;;;48.47;23.07;;;2.70;99.90;;;;;;5056528;28;20236;-72
2022/01/16 13:59:59;;;;;;;45.67;22.37;;;2.70;99.90;;;;;;5055044;28;20228;-71
2022/01/16 14:02:49;;;;;;;45.50;21.87;;;2.80;99.90;;;;;;5051324;28;20576;-73
2022/01/16 14:05:44;;;;;;;45.57;23.13;;;2.70;99.90;;;;;;5055693;28;20995;-72
2022/01/16 14:08:40;;;;;;;58.20;27.67;;;2.70;99.90;;;;;;5054169;28;20224;-73
2022/01/16 14:11:37;;;;;;;47.10;24.83;;;2.70;99.90;;;;;;5056359;28;20217;-73
2022/01/16 14:14:28;;;;;;;50.97;24.60;;;2.80;99.90;;;;;;5056456;28;20224;-72
2022/01/16 14:17:40;;;;;;;46.53;22.67;;;2.80;99.90;;;;;;5055883;28;20216;-69
2022/01/16 14:20:51;;;;;;;52.73;24.13;;;2.70;99.90;;;;;;5056045;28;20560;-70
2022/01/16 14:23:41;;;;;;;50.20;24.13;;;2.70;99.90;;;;;;5057179;28;20644;-71
2022/01/16 14:26:30;;;;;;;57.23;26.37;;;2.60;99.90;;;;;;5039028;28;20220;-69
2022/01/16 14:29:19;;;;;;;56.93;24.23;;;2.70;99.90;;;;;;5056343;28;20216;-71
2022/01/16 14:32:10;;;;;;;49.33;23.30;;;2.70;99.90;;;;;;5055214;28;20216;-71
2022/01/16 14:34:59;;;;;;;55.20;25.13;;;2.60;99.90;;;;;;5057787;28;20236;-69
2022/01/16 14:37:49;;;;;;;54.77;25.20;;;2.70;99.90;;;;;;5052503;28;20220;-71
2022/01/16 14:40:39;;;;;;;54.33;24.53;;;2.60;99.90;;;;;;5039911;28;21405;-72
2022/01/16 14:43:36;;;;;;;56.40;25.77;;;2.60;99.90;;;;;;5054208;28;20338;-70
2022/01/16 14:46:28;;;;;;;61.50;26.90;;;2.60;99.90;;;;;;5039990;28;20228;-71
2022/01/16 14:49:17;;;;;;;58.77;26.67;;;2.60;99.90;;;;;;5051677;28;20592;-71
2022/01/16 14:52:06;;;;;;;54.83;25.47;;;2.60;99.90;;;;;;5056907;28;20228;-71
2022/01/16 14:55:08;;;;;;;61.03;27.10;;;2.60;99.90;;;;;;5040871;28;20216;-71
2022/01/16 14:57:57;;;;;;;61.50;26.40;;;2.60;99.90;;;;;;5052965;28;20653;-70
2022/01/16 15:00:45;;;;;;;59.37;26.57;;;2.60;99.90;;;;;;5052929;28;20229;-71
2022/01/16 15:03:34;;;;;;;61.63;27.30;;;2.60;99.90;;;;;;5052494;28;20674;-69
2022/01/16 15:06:24;;;;;;;59.70;27.73;;;2.70;99.90;;;;;;5054244;28;20577;-69
2022/01/16 15:09:14;;;;;;;61.00;27.33;;;2.60;99.90;;;;;;5055448;28;20733;-69
2022/01/16 15:12:05;;;;;;;62.13;27.00;;;2.60;99.90;;;;;;5059308;28;20615;-70
2022/01/16 15:14:54;;;;;;;57.73;25.63;;;2.60;99.90;;;;;;5026830;28;20220;-70
2022/01/16 15:17:55;;;;;;;59.33;27.70;;;2.60;99.90;;;;;;5020976;28;20575;-70